createdAt,value
2022-08-20T00:02:16.556Z,7.05
2022-08-20T00:04:46.657Z,6.22
2022-08-20T00:07:15.632Z,6.50
2022-08-20T00:09:45.135Z,5.88
2022-08-20T00:12:17.538Z,6.00
2022-08-20T00:14:45.959Z,5.82
2022-08-20T00:17:14.255Z,6.20
2022-08-20T00:19:42.646Z,6.00
2022-08-20T00:22:13.516Z,6.50
2022-08-20T00:24:41.929Z,6.20
2022-08-20T00:27:10.104Z,6.10
2022-08-20T00:29:38.278Z,6.18
2022-08-20T00:32:06.734Z,6.00
2022-08-20T00:34:35.038Z,5.88
2022-08-20T00:37:03.382Z,5.80
2022-08-20T00:39:32.986Z,6.03
2022-08-20T00:42:01.446Z,5.68
2022-08-20T00:44:30.780Z,6.03
2022-08-20T00:46:59.036Z,5.43
2022-08-20T00:49:31.331Z,5.30
2022-08-20T00:52:06.323Z,5.00
2022-08-20T00:54:42.869Z,5.57
2022-08-20T00:57:22.874Z,4.63
2022-08-20T00:59:52.773Z,5.20
2022-08-20T01:02:27.478Z,5.00
2022-08-20T01:04:57.186Z,5.57
2022-08-20T01:07:32.509Z,4.93
2022-08-20T01:10:05.283Z,5.50
2022-08-20T01:12:33.625Z,5.68
2022-08-20T01:15:04.418Z,5.20
2022-08-20T01:17:41.674Z,5.60
2022-08-20T01:20:16.401Z,5.63
2022-08-20T01:23:12.313Z,5.15
2022-08-20T01:25:49.819Z,5.30
2022-08-20T01:28:24.786Z,5.70
2022-08-20T01:30:53.377Z,5.53
2022-08-20T01:33:24.004Z,5.57
2022-08-20T01:35:54.535Z,5.28
2022-08-20T01:38:23.560Z,5.82
2022-08-20T01:41:16.663Z,6.22
2022-08-20T01:43:47.732Z,5.55
2022-08-20T01:46:19.255Z,5.30
2022-08-20T01:48:48.206Z,6.18
2022-08-20T01:51:22.054Z,6.10
2022-08-20T01:53:53.887Z,5.43
2022-08-20T01:56:28.011Z,5.07
2022-08-20T01:59:01.260Z,5.55
2022-08-20T02:01:35.404Z,5.32
2022-08-20T02:04:16.869Z,5.22
2022-08-20T02:06:56.130Z,5.43
2022-08-20T02:09:29.253Z,5.07
2022-08-20T02:12:00.803Z,4.93
2022-08-20T02:14:29.879Z,4.80
2022-08-20T02:16:59.785Z,5.47
2022-08-20T02:19:34.153Z,5.63
2022-08-20T02:22:12.095Z,5.68
2022-08-20T02:24:40.503Z,5.68
2022-08-20T02:27:11.402Z,5.43
2022-08-20T02:29:39.995Z,7.43
2022-08-20T02:32:25.141Z,7.40
2022-08-20T02:34:57.443Z,7.70
2022-08-20T02:37:25.815Z,6.78
2022-08-20T02:39:54.055Z,8.23
2022-08-20T02:42:23.878Z,7.28
2022-08-20T02:44:53.977Z,8.20
2022-08-20T02:47:22.207Z,8.35
2022-08-20T02:49:50.579Z,6.93
2022-08-20T02:52:18.768Z,6.97
2022-08-20T02:54:47.951Z,6.82
2022-08-20T02:57:20.352Z,7.65
2022-08-20T02:59:52.163Z,9.60
2022-08-20T03:02:21.531Z,11.25
2022-08-20T03:04:50.083Z,9.88
2022-08-20T03:07:19.026Z,9.50
2022-08-20T03:09:47.232Z,11.48
2022-08-20T03:12:15.702Z,11.68
2022-08-20T03:14:43.917Z,11.50
2022-08-20T03:17:13.570Z,11.73
2022-08-20T03:19:41.912Z,10.30
2022-08-20T03:22:10.235Z,10.65
2022-08-20T03:24:38.894Z,10.77
2022-08-20T03:27:07.374Z,10.65
2022-08-20T03:29:36.678Z,11.43
2022-08-20T03:32:07.757Z,9.98
2022-08-20T03:34:37.604Z,10.57
2022-08-20T03:37:06.245Z,10.85
2022-08-20T03:39:34.547Z,11.77
2022-08-20T03:42:03.018Z,11.70
2022-08-20T03:44:31.375Z,10.73
2022-08-20T03:46:59.620Z,11.80
2022-08-20T03:49:27.805Z,12.77
2022-08-20T03:51:58.541Z,12.60
2022-08-20T03:54:31.735Z,12.18
2022-08-20T03:57:01.390Z,12.80
2022-08-20T03:59:32.939Z,13.70
2022-08-20T04:02:01.698Z,13.25
2022-08-20T04:04:30.026Z,13.85
2022-08-20T04:06:59.667Z,14.68
2022-08-20T04:09:27.986Z,14.57
2022-08-20T04:11:58.704Z,12.10
2022-08-20T04:14:26.922Z,14.48
2022-08-20T04:16:57.871Z,12.60
2022-08-20T04:19:30.126Z,13.50
2022-08-20T04:22:02.237Z,14.60
2022-08-20T04:24:32.086Z,13.10
2022-08-20T04:27:02.830Z,13.13
2022-08-20T04:29:34.889Z,13.05
2022-08-20T04:32:06.200Z,16.27
2022-08-20T04:34:36.448Z,13.68
2022-08-20T04:37:16.661Z,13.95
2022-08-20T04:40:06.212Z,14.48
2022-08-20T04:42:35.947Z,14.20
2022-08-20T04:45:08.830Z,14.50
2022-08-20T04:47:37.157Z,13.95
2022-08-20T04:50:09.322Z,12.27
2022-08-20T04:52:41.053Z,13.88
2022-08-20T04:55:11.132Z,12.65
2022-08-20T04:57:39.573Z,12.15
2022-08-20T05:00:12.872Z,13.63
2022-08-20T05:02:41.978Z,13.40
2022-08-20T05:05:11.683Z,12.60
2022-08-20T05:07:45.189Z,13.32
2022-08-20T05:10:16.896Z,14.95
2022-08-20T05:12:57.097Z,13.57
2022-08-20T05:15:26.306Z,13.60
2022-08-20T05:18:00.553Z,14.18
2022-08-20T05:20:31.334Z,12.60
2022-08-20T05:23:02.272Z,12.15
2022-08-20T05:25:31.882Z,12.25
2022-08-20T05:28:02.975Z,11.90
2022-08-20T05:30:34.086Z,13.88
2022-08-20T05:33:04.957Z,12.30
2022-08-20T05:35:35.783Z,13.15
2022-08-20T05:38:06.609Z,13.73
2022-08-20T05:40:36.113Z,13.90
2022-08-20T05:43:05.894Z,13.52
2022-08-20T05:45:37.655Z,13.50
2022-08-20T05:48:07.803Z,11.00
2022-08-20T05:50:36.561Z,12.52
2022-08-20T05:53:07.027Z,10.10
2022-08-20T05:55:37.341Z,12.68
2022-08-20T05:58:09.473Z,10.57
2022-08-20T06:00:38.274Z,12.30
2022-08-20T06:03:24.530Z,13.82
2022-08-20T06:05:53.151Z,10.85
2022-08-20T06:08:24.134Z,12.25
2022-08-20T06:10:52.675Z,11.25
2022-08-20T06:13:21.028Z,12.27
2022-08-20T06:15:49.973Z,10.60
2022-08-20T06:18:28.305Z,10.85
2022-08-20T06:20:57.148Z,12.70
2022-08-20T06:23:27.586Z,11.85
2022-08-20T06:26:15.952Z,11.90
2022-08-20T06:28:54.107Z,10.93
2022-08-20T06:31:22.884Z,12.60
2022-08-20T06:33:51.330Z,11.50
2022-08-20T06:36:20.230Z,12.57
2022-08-20T06:38:49.940Z,12.10
2022-08-20T06:41:18.566Z,11.52
2022-08-20T06:43:47.117Z,12.93
2022-08-20T06:46:15.561Z,12.05
2022-08-20T06:48:44.007Z,12.85
2022-08-20T06:51:12.385Z,12.43
2022-08-20T06:53:41.189Z,10.18
2022-08-20T06:56:10.810Z,10.90
2022-08-20T06:58:39.333Z,9.85
2022-08-20T07:01:10.341Z,9.73
2022-08-20T07:03:40.108Z,10.13
2022-08-20T07:06:22.925Z,9.63
2022-08-20T07:08:51.199Z,9.88
2022-08-20T07:11:27.276Z,9.15
2022-08-20T07:13:58.247Z,8.10
2022-08-20T07:16:27.778Z,8.20
2022-08-20T07:18:56.055Z,8.00
2022-08-20T07:21:24.435Z,8.15
2022-08-20T07:23:53.151Z,7.40
2022-08-20T07:26:23.938Z,6.93
2022-08-20T07:28:52.441Z,6.63
2022-08-20T07:31:38.915Z,5.50
2022-08-20T07:34:11.690Z,5.85
2022-08-20T07:36:40.514Z,5.60
2022-08-20T07:39:08.839Z,5.82
2022-08-20T07:41:39.079Z,6.10
2022-08-20T07:44:07.765Z,6.22
2022-08-20T07:46:36.474Z,5.57
2022-08-20T07:49:09.822Z,6.55
2022-08-20T07:51:38.258Z,6.78
2022-08-20T07:54:08.183Z,6.78
2022-08-20T07:56:38.041Z,7.03
2022-08-20T07:59:07.784Z,6.18
2022-08-20T08:01:36.107Z,6.22
2022-08-20T08:04:04.708Z,4.95
2022-08-20T08:06:33.301Z,5.13
2022-08-20T08:09:07.740Z,4.80
2022-08-20T08:11:46.340Z,5.05
2022-08-20T08:14:23.151Z,4.93
2022-08-20T08:16:52.678Z,4.13
2022-08-20T08:19:22.372Z,3.92
2022-08-20T08:21:50.791Z,4.32
2022-08-20T08:24:22.510Z,4.70
2022-08-20T08:26:55.097Z,4.05
2022-08-20T08:29:23.578Z,4.28
2022-08-20T08:31:51.914Z,3.20
2022-08-20T08:34:20.272Z,3.47
2022-08-20T08:36:48.514Z,3.38
2022-08-20T08:39:17.366Z,3.08
2022-08-20T08:41:49.862Z,3.20
2022-08-20T08:44:28.400Z,3.28
2022-08-20T08:47:02.777Z,3.00
2022-08-20T08:49:37.534Z,3.20
2022-08-20T08:52:12.434Z,3.20
2022-08-20T08:54:48.881Z,2.80
2022-08-20T08:57:17.827Z,3.30
2022-08-20T09:00:03.825Z,2.85
2022-08-20T09:02:36.269Z,3.22
2022-08-20T09:05:15.670Z,3.30
2022-08-20T09:07:51.130Z,3.50
2022-08-20T09:10:23.124Z,2.95
2022-08-20T09:12:52.398Z,2.80
2022-08-20T09:15:22.957Z,3.00
2022-08-20T09:17:51.421Z,3.10
2022-08-20T09:20:20.226Z,3.25
2022-08-20T09:22:54.832Z,2.97
2022-08-20T09:25:23.752Z,3.20
2022-08-20T09:27:52.090Z,3.50
2022-08-20T09:30:22.091Z,3.33
2022-08-20T09:32:51.557Z,3.45
2022-08-20T09:35:20.043Z,3.33
2022-08-20T09:37:51.011Z,3.70
2022-08-20T09:40:21.386Z,3.00
2022-08-20T09:42:51.456Z,3.15
2022-08-20T09:45:21.989Z,2.80
2022-08-20T09:47:56.495Z,3.20
2022-08-20T09:50:26.322Z,3.40
2022-08-20T09:52:57.618Z,3.78
2022-08-20T09:55:35.094Z,3.65
2022-08-20T09:58:08.730Z,3.35
2022-08-20T10:00:38.406Z,3.10
2022-08-20T10:03:06.606Z,3.50
2022-08-20T10:05:34.890Z,3.63
2022-08-20T10:08:07.041Z,3.50
2022-08-20T10:10:35.515Z,3.08
2022-08-20T10:13:04.034Z,3.47
2022-08-20T10:15:33.036Z,3.20
2022-08-20T10:18:07.705Z,3.90
2022-08-20T10:20:36.942Z,3.40
2022-08-20T10:23:06.081Z,3.50
2022-08-20T10:25:34.825Z,4.93
2022-08-20T10:28:03.530Z,3.35
2022-08-20T10:30:31.817Z,3.85
2022-08-20T10:33:00.029Z,3.30
2022-08-20T10:35:30.237Z,3.13
2022-08-20T10:37:59.029Z,3.35
2022-08-20T10:40:27.719Z,3.03
2022-08-20T10:42:55.917Z,3.70
2022-08-20T10:45:25.650Z,3.50
2022-08-20T10:47:54.022Z,3.15
2022-08-20T10:50:22.377Z,3.20
2022-08-20T10:52:51.876Z,3.05
2022-08-20T10:55:21.944Z,3.20
2022-08-20T10:57:50.292Z,3.40
2022-08-20T11:00:20.101Z,3.70
2022-08-20T11:02:48.439Z,3.35
2022-08-20T11:05:16.698Z,3.13
2022-08-20T11:07:55.737Z,3.03
2022-08-20T11:10:33.208Z,3.97
2022-08-20T11:13:02.158Z,3.22
2022-08-20T11:15:30.682Z,3.63
2022-08-20T11:17:59.067Z,3.25
2022-08-20T11:20:27.752Z,3.22
2022-08-20T11:22:56.337Z,3.05
2022-08-20T11:25:25.546Z,2.92
2022-08-20T11:27:58.070Z,2.58
2022-08-20T11:30:30.864Z,3.03
2022-08-20T11:33:00.898Z,2.78
2022-08-20T11:35:48.345Z,3.10
2022-08-20T11:38:18.862Z,2.97
2022-08-20T11:40:48.182Z,2.22
2022-08-20T11:43:18.305Z,3.05
2022-08-20T11:45:50.951Z,2.47
2022-08-20T11:48:19.802Z,2.40
2022-08-20T11:50:49.941Z,2.78
2022-08-20T11:53:18.541Z,2.40
2022-08-20T11:55:48.507Z,2.53
2022-08-20T11:58:18.836Z,2.30
2022-08-20T12:00:47.097Z,2.15
2022-08-20T12:03:15.779Z,2.40
2022-08-20T12:05:47.007Z,2.65
2022-08-20T12:08:26.689Z,2.15
2022-08-20T12:10:57.557Z,2.50
2022-08-20T12:13:43.927Z,2.20
2022-08-20T12:16:15.992Z,2.05
2022-08-20T12:18:44.339Z,2.33
2022-08-20T12:21:12.941Z,2.42
2022-08-20T12:23:41.372Z,2.13
2022-08-20T12:26:10.174Z,2.33
2022-08-20T12:28:39.790Z,2.22
2022-08-20T12:31:08.164Z,1.85
2022-08-20T12:33:36.440Z,1.50
2022-08-20T12:36:05.262Z,1.67
2022-08-20T12:38:33.531Z,1.92
2022-08-20T12:41:02.535Z,2.10
2022-08-20T12:43:30.767Z,2.15
2022-08-20T12:46:00.355Z,2.10
2022-08-20T12:48:28.679Z,1.80
2022-08-20T12:50:56.940Z,1.80
2022-08-20T12:53:25.278Z,2.00
2022-08-20T12:55:53.610Z,2.20
2022-08-20T12:58:21.860Z,1.90
2022-08-20T13:00:50.726Z,2.08
2022-08-20T13:03:21.482Z,2.05
2022-08-20T13:05:50.546Z,2.00
2022-08-20T13:08:19.392Z,2.05
2022-08-20T13:10:48.857Z,1.85
2022-08-20T13:13:20.971Z,1.70
2022-08-20T13:15:51.320Z,1.70
2022-08-20T13:18:21.765Z,1.88
2022-08-20T13:20:50.363Z,1.65
2022-08-20T13:23:19.134Z,2.00
2022-08-20T13:25:47.481Z,2.13
2022-08-20T13:28:15.741Z,1.65
2022-08-20T13:30:43.966Z,2.20
2022-08-20T13:33:12.342Z,2.00
2022-08-20T13:35:41.962Z,1.88
2022-08-20T13:38:10.233Z,1.95
2022-08-20T13:40:38.505Z,2.00
2022-08-20T13:43:07.814Z,2.10
2022-08-20T13:45:41.555Z,1.50
2022-08-20T13:48:14.956Z,1.95
2022-08-20T13:50:46.828Z,1.83
2022-08-20T13:53:17.124Z,1.65
2022-08-20T13:55:45.952Z,2.30
2022-08-20T13:58:14.659Z,2.15
2022-08-20T14:00:43.239Z,1.67
2022-08-20T14:03:12.356Z,1.80
2022-08-20T14:05:42.472Z,1.90
2022-08-20T14:08:14.987Z,2.03
2022-08-20T14:10:44.538Z,1.92
2022-08-20T14:13:15.912Z,1.98
2022-08-20T14:15:44.764Z,1.90
2022-08-20T14:18:14.313Z,2.15
2022-08-20T14:20:45.361Z,1.60
2022-08-20T14:23:16.239Z,1.90
2022-08-20T14:25:49.326Z,1.60
2022-08-20T14:28:20.857Z,1.88
2022-08-20T14:30:53.292Z,1.50
2022-08-20T14:33:23.346Z,1.80
2022-08-20T14:35:52.432Z,1.50
2022-08-20T14:38:22.340Z,1.67
2022-08-20T14:40:50.882Z,1.45
2022-08-20T14:43:19.653Z,1.50
2022-08-20T14:45:47.821Z,1.60
2022-08-20T14:48:16.058Z,1.55
2022-08-20T14:50:44.311Z,1.45
2022-08-20T14:53:12.563Z,1.60
2022-08-20T14:55:42.310Z,1.70
2022-08-20T14:58:12.952Z,1.83
2022-08-20T15:00:42.451Z,1.83
2022-08-20T15:03:10.752Z,1.58
2022-08-20T15:05:40.039Z,1.95
2022-08-20T15:08:10.554Z,1.50
2022-08-20T15:10:41.001Z,1.48
2022-08-20T15:13:09.958Z,1.70
2022-08-20T15:15:39.398Z,1.98
2022-08-20T15:18:08.814Z,1.50
2022-08-20T15:20:38.251Z,1.60
2022-08-20T15:23:07.306Z,1.50
2022-08-20T15:25:37.966Z,1.67
2022-08-20T15:28:10.775Z,1.92
2022-08-20T15:30:41.815Z,1.45
2022-08-20T15:33:11.900Z,2.10
2022-08-20T15:35:40.651Z,2.25
2022-08-20T15:38:08.909Z,1.60
2022-08-20T15:40:37.510Z,1.40
2022-08-20T15:43:07.553Z,2.03
2022-08-20T15:45:38.250Z,2.35
2022-08-20T15:48:14.894Z,1.63
2022-08-20T15:51:04.045Z,1.75
2022-08-20T15:53:43.704Z,2.00
2022-08-20T15:56:26.614Z,1.90
2022-08-20T15:59:13.625Z,1.63
2022-08-20T16:01:54.445Z,1.90
2022-08-20T16:04:48.078Z,1.90
2022-08-20T16:07:23.428Z,1.30
2022-08-20T16:10:11.797Z,1.70
2022-08-20T16:12:49.551Z,1.55
2022-08-20T16:15:25.036Z,1.60
2022-08-20T16:18:02.319Z,1.98
2022-08-20T16:20:37.189Z,1.67
2022-08-20T16:23:06.678Z,2.00
2022-08-20T16:25:52.420Z,2.15
2022-08-20T16:28:28.000Z,1.60
2022-08-20T16:31:07.698Z,1.85
2022-08-20T16:33:43.759Z,1.63
2022-08-20T16:36:28.858Z,1.52
2022-08-20T16:39:04.031Z,1.77
2022-08-20T16:41:39.038Z,1.70
2022-08-20T16:44:22.598Z,1.70
2022-08-20T16:46:59.861Z,1.45
2022-08-20T16:49:32.329Z,1.75
2022-08-20T16:52:02.197Z,1.80
2022-08-20T16:54:31.151Z,1.65
2022-08-20T16:57:03.357Z,1.35
2022-08-20T16:59:33.778Z,1.63
2022-08-20T17:02:10.638Z,1.75
2022-08-20T17:04:58.548Z,1.80
2022-08-20T17:07:41.671Z,1.95
2022-08-20T17:10:21.508Z,1.90
2022-08-20T17:12:56.174Z,1.83
2022-08-20T17:15:29.501Z,1.90
2022-08-20T17:18:18.314Z,2.00
2022-08-20T17:20:47.042Z,1.77
2022-08-20T17:23:20.009Z,1.80
2022-08-20T17:25:59.839Z,2.00
2022-08-20T17:28:31.997Z,1.80
2022-08-20T17:31:03.456Z,1.67
2022-08-20T17:33:38.291Z,1.70
2022-08-20T17:36:12.343Z,1.30
2022-08-20T17:38:48.392Z,1.95
2022-08-20T17:41:24.310Z,1.92
2022-08-20T17:43:59.938Z,1.50
2022-08-20T17:46:33.233Z,1.65
2022-08-20T17:49:11.832Z,1.67
2022-08-20T17:51:50.871Z,1.58
2022-08-20T17:54:27.927Z,1.98
2022-08-20T17:57:04.470Z,1.70
2022-08-20T18:00:00.924Z,2.45
2022-08-20T18:02:29.830Z,1.75
2022-08-20T18:04:59.697Z,1.83
2022-08-20T18:07:39.145Z,2.00
2022-08-20T18:10:14.804Z,1.80
2022-08-20T18:12:57.477Z,1.90
2022-08-20T18:15:30.388Z,1.95
2022-08-20T18:18:18.839Z,1.92
2022-08-20T18:21:21.521Z,1.73
2022-08-20T18:23:57.578Z,2.03
2022-08-20T18:26:33.513Z,1.83
2022-08-20T18:29:10.964Z,2.20
2022-08-20T18:31:47.033Z,2.35
2022-08-20T18:34:19.074Z,1.90
2022-08-20T18:36:58.366Z,1.77
2022-08-20T18:39:32.373Z,2.13
2022-08-20T18:42:03.962Z,1.92
2022-08-20T18:44:40.832Z,2.20
2022-08-20T18:47:23.470Z,2.30
2022-08-20T18:50:06.541Z,2.10
2022-08-20T18:53:06.260Z,2.50
2022-08-20T18:55:37.821Z,2.13
2022-08-20T18:58:10.533Z,2.13
2022-08-20T19:00:43.424Z,1.50
2022-08-20T19:03:21.302Z,2.10
2022-08-20T19:06:26.042Z,2.00
2022-08-20T19:09:06.990Z,2.72
2022-08-20T19:12:00.333Z,2.20
2022-08-20T19:14:53.511Z,2.20
2022-08-20T19:17:37.958Z,2.30
2022-08-20T19:20:13.719Z,2.45
2022-08-20T19:22:44.556Z,2.45
2022-08-20T19:25:27.304Z,2.47
2022-08-20T19:27:59.487Z,2.50
2022-08-20T19:30:39.743Z,2.45
2022-08-20T19:33:10.090Z,2.50
2022-08-20T19:35:38.910Z,2.40
2022-08-20T19:38:09.336Z,2.83
2022-08-20T19:40:44.330Z,2.40
2022-08-20T19:43:20.074Z,2.42
2022-08-20T19:45:52.662Z,2.58
2022-08-20T19:48:51.446Z,2.50
2022-08-20T19:51:30.433Z,2.97
2022-08-20T19:53:59.047Z,2.85
2022-08-20T19:56:29.504Z,2.53
2022-08-20T19:59:04.451Z,2.70
2022-08-20T20:01:34.431Z,2.42
2022-08-20T20:04:06.607Z,2.72
2022-08-20T20:06:42.450Z,3.22
2022-08-20T20:09:22.044Z,3.20
2022-08-20T20:11:57.196Z,3.60
2022-08-20T20:14:32.013Z,3.08
2022-08-20T20:17:07.090Z,3.22
2022-08-20T20:19:46.672Z,3.30
2022-08-20T20:22:24.303Z,3.42
2022-08-20T20:25:04.310Z,3.75
2022-08-20T20:27:36.708Z,4.13
2022-08-20T20:30:10.673Z,3.40
2022-08-20T20:32:45.076Z,4.10
2022-08-20T20:35:29.128Z,3.85
2022-08-20T20:38:02.478Z,3.60
2022-08-20T20:40:36.156Z,3.83
2022-08-20T20:43:11.016Z,3.78
2022-08-20T20:45:44.822Z,3.80
2022-08-20T20:48:24.326Z,3.92
2022-08-20T20:50:56.326Z,3.67
2022-08-20T20:53:52.987Z,3.92
2022-08-20T20:56:35.779Z,3.67
2022-08-20T20:59:08.535Z,4.07
2022-08-20T21:01:49.894Z,3.70
2022-08-20T21:04:21.248Z,4.32
2022-08-20T21:06:50.433Z,3.67
2022-08-20T21:09:20.218Z,3.55
2022-08-20T21:11:49.850Z,3.95
2022-08-20T21:14:20.069Z,3.65
2022-08-20T21:16:48.526Z,3.70
2022-08-20T21:19:16.979Z,4.32
2022-08-20T21:21:45.285Z,5.00
2022-08-20T21:24:14.152Z,4.88
2022-08-20T21:26:42.797Z,5.10
2022-08-20T21:29:16.462Z,5.30
2022-08-20T21:31:47.699Z,5.45
2022-08-20T21:34:17.362Z,6.68
2022-08-20T21:36:46.409Z,5.00
2022-08-20T21:39:15.346Z,4.20
2022-08-20T21:41:45.603Z,3.90
2022-08-20T21:44:21.786Z,3.95
2022-08-20T21:46:52.348Z,3.53
2022-08-20T21:49:21.241Z,4.10
2022-08-20T21:51:51.093Z,4.25
2022-08-20T21:54:20.278Z,4.63
2022-08-20T21:56:53.846Z,4.30
2022-08-20T21:59:24.386Z,4.88
2022-08-20T22:01:54.640Z,5.10
2022-08-20T22:04:23.578Z,4.70
2022-08-20T22:06:52.107Z,4.97
2022-08-20T22:09:20.735Z,4.80
2022-08-20T22:11:57.362Z,5.35
2022-08-20T22:14:29.973Z,4.80
2022-08-20T22:17:00.043Z,4.80
2022-08-20T22:19:28.366Z,5.13
2022-08-20T22:21:57.701Z,4.80
2022-08-20T22:24:29.281Z,5.60
2022-08-20T22:26:57.941Z,5.13
2022-08-20T22:29:26.221Z,4.93
2022-08-20T22:31:55.022Z,4.78
2022-08-20T22:34:24.833Z,4.93
2022-08-20T22:36:55.869Z,4.85
2022-08-20T22:39:24.187Z,4.88
2022-08-20T22:41:53.079Z,5.07
2022-08-20T22:44:21.447Z,5.07
2022-08-20T22:46:55.208Z,5.65
2022-08-20T22:49:31.817Z,5.50
2022-08-20T22:52:00.818Z,6.65
2022-08-20T22:54:29.953Z,8.18
2022-08-20T22:56:58.287Z,7.65
2022-08-20T22:59:26.779Z,7.97
2022-08-20T23:01:55.975Z,8.00
2022-08-20T23:04:29.924Z,8.38
2022-08-20T23:06:59.464Z,9.13
2022-08-20T23:09:28.484Z,8.95
2022-08-20T23:11:58.705Z,8.60
2022-08-20T23:14:27.182Z,9.35
2022-08-20T23:17:02.508Z,9.70
2022-08-20T23:19:32.429Z,9.25
2022-08-20T23:22:00.735Z,9.05
2022-08-20T23:24:29.078Z,9.70
2022-08-20T23:26:57.796Z,9.30
2022-08-20T23:29:27.050Z,9.40
2022-08-20T23:31:56.793Z,9.57
2022-08-20T23:34:26.824Z,8.93
2022-08-20T23:36:58.322Z,8.38
2022-08-20T23:39:27.848Z,8.73
2022-08-20T23:41:56.624Z,7.60
2022-08-20T23:44:27.024Z,7.38
2022-08-20T23:46:59.135Z,7.00
2022-08-20T23:49:28.415Z,7.03
2022-08-20T23:52:13.163Z,6.57
2022-08-20T23:54:42.245Z,7.63
2022-08-20T23:57:10.671Z,6.22
2022-08-20T23:59:39.127Z,6.38
